createdAt,value
2022-11-05T00:00:19.177Z,54.25
2022-11-05T00:03:06.204Z,52.92
2022-11-05T00:05:51.761Z,51.50
2022-11-05T00:08:45.505Z,51.95
2022-11-05T00:11:18.100Z,52.13
2022-11-05T00:14:04.057Z,54.50
2022-11-05T00:16:47.065Z,52.38
2022-11-05T00:19:16.868Z,53.03
2022-11-05T00:22:02.634Z,53.92
2022-11-05T00:24:47.840Z,55.75
2022-11-05T00:27:15.929Z,49.72
2022-11-05T00:29:44.000Z,52.05
2022-11-05T00:32:12.077Z,51.97
2022-11-05T00:34:41.564Z,49.78
2022-11-05T00:37:09.566Z,50.15
2022-11-05T00:39:37.551Z,50.70
2022-11-05T00:42:23.335Z,50.28
2022-11-05T00:45:03.416Z,50.92
2022-11-05T00:47:49.637Z,50.85
2022-11-05T00:50:19.685Z,52.67
2022-11-05T00:52:56.935Z,51.92
2022-11-05T00:55:26.505Z,56.17
2022-11-05T00:57:54.481Z,53.30
2022-11-05T01:00:24.465Z,54.35
2022-11-05T01:02:52.613Z,53.55
2022-11-05T01:05:22.198Z,53.90
2022-11-05T01:07:50.189Z,53.70
2022-11-05T01:10:18.173Z,51.85
2022-11-05T01:12:46.151Z,52.47
2022-11-05T01:15:14.509Z,55.80
2022-11-05T01:17:42.576Z,53.65
2022-11-05T01:20:11.977Z,53.55
2022-11-05T01:22:41.367Z,52.55
2022-11-05T01:25:10.379Z,53.22
2022-11-05T01:27:38.734Z,52.20
2022-11-05T01:30:09.147Z,51.60
2022-11-05T01:32:38.225Z,50.33
2022-11-05T01:35:07.787Z,50.33
2022-11-05T01:37:36.441Z,53.28
2022-11-05T01:40:06.779Z,49.15
2022-11-05T01:42:35.200Z,49.45
2022-11-05T01:45:06.607Z,51.55
2022-11-05T01:47:44.383Z,51.40
2022-11-05T01:50:42.659Z,50.75
2022-11-05T01:53:21.522Z,50.88
2022-11-05T01:55:55.392Z,50.00
2022-11-05T01:58:26.371Z,51.55
2022-11-05T02:00:55.998Z,50.50
2022-11-05T02:03:25.285Z,51.67
2022-11-05T02:05:57.290Z,51.55
2022-11-05T02:08:37.781Z,46.83
2022-11-05T02:11:07.216Z,52.92
2022-11-05T02:13:36.569Z,49.60
2022-11-05T02:16:13.794Z,49.63
2022-11-05T02:18:53.340Z,52.05
2022-11-05T02:21:58.431Z,51.15
2022-11-05T02:24:53.776Z,51.28
2022-11-05T02:27:39.092Z,48.72
2022-11-05T02:32:56.298Z,50.65
2022-11-05T02:35:42.966Z,50.97
2022-11-05T02:38:16.318Z,51.38
2022-11-05T02:40:55.021Z,43.83
2022-11-05T02:43:32.178Z,51.75
2022-11-05T02:46:16.221Z,46.65
2022-11-05T02:48:51.701Z,49.58
2022-11-05T02:51:28.442Z,51.03
2022-11-05T02:54:03.533Z,53.92
2022-11-05T02:56:35.079Z,54.20
2022-11-05T02:59:03.110Z,51.35
2022-11-05T03:01:31.320Z,54.40
2022-11-05T03:04:02.367Z,55.10
2022-11-05T03:06:53.055Z,54.17
2022-11-05T03:10:08.264Z,55.05
2022-11-05T03:12:46.186Z,49.95
2022-11-05T03:15:24.287Z,54.80
2022-11-05T03:18:02.191Z,52.55
2022-11-05T03:20:38.407Z,54.35
2022-11-05T03:23:14.824Z,53.25
2022-11-05T03:25:47.285Z,50.88
2022-11-05T03:28:16.565Z,52.53
2022-11-05T03:30:46.255Z,53.80
2022-11-05T03:33:19.654Z,56.60
2022-11-05T03:35:53.388Z,52.15
2022-11-05T03:38:25.732Z,56.75
2022-11-05T03:40:57.423Z,55.55
2022-11-05T03:43:34.271Z,50.10
2022-11-05T03:46:06.232Z,53.78
2022-11-05T03:48:40.139Z,52.45
2022-11-05T03:51:17.606Z,54.45
2022-11-05T03:53:51.226Z,51.10
2022-11-05T03:56:24.305Z,54.35
2022-11-05T03:58:58.482Z,51.78
2022-11-05T04:01:27.730Z,49.35
2022-11-05T04:03:55.869Z,51.70
2022-11-05T04:06:42.572Z,49.20
2022-11-05T04:09:28.499Z,51.38
2022-11-05T04:12:14.008Z,48.90
2022-11-05T04:14:42.170Z,51.85
2022-11-05T04:17:09.985Z,50.08
2022-11-05T04:19:56.675Z,50.58
2022-11-05T04:22:44.779Z,55.35
2022-11-05T04:25:14.044Z,54.15
2022-11-05T04:27:42.101Z,51.72
2022-11-05T04:30:18.961Z,45.78
2022-11-05T04:32:58.612Z,51.38
2022-11-05T04:35:27.553Z,53.75
2022-11-05T04:37:57.101Z,48.88
2022-11-05T04:40:25.635Z,49.35
2022-11-05T04:42:55.598Z,53.45
2022-11-05T04:45:24.571Z,53.67
2022-11-05T04:47:52.627Z,53.63
2022-11-05T04:50:20.911Z,47.97
2022-11-05T04:52:48.965Z,48.83
2022-11-05T04:55:18.561Z,51.00
2022-11-05T04:57:49.541Z,44.67
2022-11-05T05:00:19.035Z,53.35
2022-11-05T05:02:47.762Z,50.65
2022-11-05T05:05:16.393Z,44.33
2022-11-05T05:07:44.641Z,47.35
2022-11-05T05:10:13.112Z,49.95
2022-11-05T05:12:42.511Z,51.65
2022-11-05T05:15:10.530Z,42.95
2022-11-05T05:17:38.634Z,45.75
2022-11-05T05:20:24.514Z,47.30
2022-11-05T05:22:54.143Z,49.10
2022-11-05T05:25:22.952Z,42.72
2022-11-05T05:27:52.693Z,42.17
2022-11-05T05:30:20.723Z,47.67
2022-11-05T05:32:48.760Z,50.33
2022-11-05T05:35:17.100Z,48.92
2022-11-05T05:37:45.675Z,43.60
2022-11-05T05:40:13.734Z,49.67
2022-11-05T05:42:43.306Z,50.50
2022-11-05T05:45:13.538Z,51.92
2022-11-05T05:47:41.605Z,47.10
2022-11-05T05:50:09.836Z,48.72
2022-11-05T05:52:37.893Z,47.42
2022-11-05T05:55:06.866Z,45.22
2022-11-05T05:57:35.526Z,49.13
2022-11-05T06:00:03.645Z,50.55
2022-11-05T06:02:33.329Z,52.58
2022-11-05T06:05:01.516Z,47.47
2022-11-05T06:07:34.453Z,38.17
2022-11-05T06:10:06.641Z,54.60
2022-11-05T06:12:34.824Z,53.60
2022-11-05T06:15:02.791Z,50.63
2022-11-05T06:17:32.170Z,48.35
2022-11-05T06:20:00.224Z,53.03
2022-11-05T06:22:28.242Z,52.58
2022-11-05T06:24:56.286Z,52.17
2022-11-05T06:27:24.331Z,44.42
2022-11-05T06:29:52.359Z,49.30
2022-11-05T06:32:20.455Z,51.22
2022-11-05T06:34:50.044Z,45.70
2022-11-05T06:37:18.212Z,48.42
2022-11-05T06:39:46.161Z,48.70
2022-11-05T06:42:18.786Z,48.20
2022-11-05T06:44:47.691Z,52.38
2022-11-05T06:47:15.779Z,41.65
2022-11-05T06:49:43.832Z,48.00
2022-11-05T06:52:13.676Z,49.05
2022-11-05T06:54:42.467Z,44.28
2022-11-05T06:57:11.176Z,40.72
2022-11-05T06:59:40.093Z,41.08
2022-11-05T07:02:08.895Z,39.85
2022-11-05T07:04:36.893Z,38.92
2022-11-05T07:07:05.011Z,38.17
2022-11-05T07:09:34.426Z,37.83
2022-11-05T07:12:02.561Z,37.30
2022-11-05T07:14:30.570Z,43.53
2022-11-05T07:16:58.989Z,42.10
2022-11-05T07:19:27.154Z,38.72
2022-11-05T07:21:55.153Z,39.53
2022-11-05T07:24:23.120Z,42.13
2022-11-05T07:26:52.535Z,41.58
2022-11-05T07:29:20.607Z,40.60
2022-11-05T07:31:48.728Z,42.58
2022-11-05T07:34:16.898Z,40.40
2022-11-05T07:36:44.855Z,44.55
2022-11-05T07:39:12.814Z,40.78
2022-11-05T07:41:40.872Z,41.00
2022-11-05T07:44:10.307Z,41.55
2022-11-05T07:46:38.430Z,34.53
2022-11-05T07:49:06.781Z,33.80
2022-11-05T07:51:34.870Z,40.10
2022-11-05T07:54:03.148Z,42.08
2022-11-05T07:56:31.137Z,33.63
2022-11-05T07:58:59.180Z,33.95
2022-11-05T08:01:28.742Z,40.60
2022-11-05T08:03:57.002Z,29.70
2022-11-05T08:06:24.978Z,39.95
2022-11-05T08:08:53.046Z,35.60
2022-11-05T08:11:21.197Z,33.38
2022-11-05T08:13:49.228Z,38.60
2022-11-05T08:16:17.359Z,34.72
2022-11-05T08:18:47.050Z,33.38
2022-11-05T08:21:15.109Z,28.45
2022-11-05T08:23:43.106Z,27.27
2022-11-05T08:26:11.857Z,34.55
2022-11-05T08:28:39.897Z,28.73
2022-11-05T08:31:07.950Z,35.97
2022-11-05T08:33:36.075Z,36.67
2022-11-05T08:36:06.383Z,30.27
2022-11-05T08:38:34.541Z,26.52
2022-11-05T08:41:02.707Z,31.00
2022-11-05T08:43:30.758Z,32.08
2022-11-05T08:46:01.253Z,27.83
2022-11-05T08:48:29.407Z,33.78
2022-11-05T08:50:57.418Z,33.75
2022-11-05T08:53:26.757Z,22.38
2022-11-05T08:55:59.157Z,32.33
2022-11-05T08:58:29.780Z,28.85
2022-11-05T09:01:03.371Z,26.30
2022-11-05T09:06:00.455Z,28.83
2022-11-05T09:08:29.949Z,22.30
2022-11-05T09:10:58.037Z,30.05
2022-11-05T09:13:26.685Z,24.13
2022-11-05T09:15:55.210Z,35.83
2022-11-05T09:18:23.289Z,32.65
2022-11-05T09:20:51.254Z,23.77
2022-11-05T09:23:19.518Z,24.73
2022-11-05T09:25:49.547Z,22.15
2022-11-05T09:28:21.575Z,24.70
2022-11-05T09:30:51.601Z,22.27
2022-11-05T09:33:22.617Z,27.17
2022-11-05T09:35:51.745Z,23.52
2022-11-05T09:38:20.253Z,26.33
2022-11-05T09:40:57.004Z,22.85
2022-11-05T09:43:31.916Z,26.00
2022-11-05T09:46:04.520Z,25.92
2022-11-05T09:48:34.534Z,19.80
2022-11-05T09:51:02.706Z,27.35
2022-11-05T09:53:30.736Z,22.98
2022-11-05T09:56:02.111Z,28.17
2022-11-05T09:58:37.442Z,21.50
2022-11-05T10:01:07.967Z,25.80
2022-11-05T10:03:42.612Z,18.38
2022-11-05T10:06:15.594Z,24.23
2022-11-05T10:08:46.413Z,23.05
2022-11-05T10:11:19.641Z,26.00
2022-11-05T10:13:52.636Z,25.50
2022-11-05T10:16:25.449Z,23.13
2022-11-05T10:18:58.283Z,22.33
2022-11-05T10:21:51.358Z,39.35
2022-11-05T10:24:16.776Z,28.23
2022-11-05T10:26:50.483Z,25.88
2022-11-05T10:29:29.488Z,26.75
2022-11-05T10:31:58.628Z,20.98
2022-11-05T10:34:31.821Z,22.73
2022-11-05T10:36:59.896Z,23.23
2022-11-05T10:39:28.808Z,22.23
2022-11-05T10:42:15.437Z,18.92
2022-11-05T10:44:48.541Z,24.33
2022-11-05T10:47:41.408Z,20.08
2022-11-05T10:50:12.957Z,23.10
2022-11-05T10:52:47.142Z,23.10
2022-11-05T10:55:20.322Z,20.50
2022-11-05T10:57:49.980Z,22.83
2022-11-05T11:00:24.220Z,22.02
2022-11-05T11:02:54.552Z,24.17
2022-11-05T11:05:25.954Z,23.08
2022-11-05T11:07:57.661Z,23.67
2022-11-05T11:10:27.198Z,22.77
2022-11-05T11:12:58.179Z,25.88
2022-11-05T11:15:29.381Z,24.48
2022-11-05T11:17:57.668Z,24.08
2022-11-05T11:20:29.230Z,19.20
2022-11-05T11:23:07.011Z,23.85
2022-11-05T11:25:43.672Z,24.92
2022-11-05T11:28:21.350Z,20.98
2022-11-05T11:30:52.359Z,22.85
2022-11-05T11:33:24.405Z,21.73
2022-11-05T11:35:52.523Z,25.35
2022-11-05T11:38:20.575Z,22.38
2022-11-05T11:40:48.647Z,25.23
2022-11-05T11:43:27.468Z,22.17
2022-11-05T11:46:03.802Z,22.60
2022-11-05T11:48:37.442Z,21.63
2022-11-05T11:51:30.444Z,22.42
2022-11-05T11:54:00.001Z,23.88
2022-11-05T11:56:29.073Z,26.05
2022-11-05T11:59:02.310Z,21.25
2022-11-05T12:01:57.597Z,21.95
2022-11-05T12:05:01.315Z,24.98
2022-11-05T12:07:42.531Z,22.70
2022-11-05T12:10:22.992Z,22.65
2022-11-05T12:13:01.756Z,21.05
2022-11-05T12:15:42.970Z,23.48
2022-11-05T12:18:19.705Z,22.25
2022-11-05T12:21:07.452Z,20.38
2022-11-05T12:24:03.112Z,18.92
2022-11-05T12:26:42.696Z,19.27
2022-11-05T12:29:39.000Z,21.35
2022-11-05T12:32:41.207Z,21.50
2022-11-05T12:35:25.496Z,20.55
2022-11-05T12:38:00.936Z,20.00
2022-11-05T12:40:44.178Z,22.83
2022-11-05T12:43:20.963Z,26.02
2022-11-05T12:45:58.969Z,23.33
2022-11-05T12:48:46.314Z,21.25
2022-11-05T12:51:27.816Z,20.67
2022-11-05T12:54:06.952Z,20.38
2022-11-05T12:56:40.512Z,19.80
2022-11-05T12:59:19.604Z,19.42
2022-11-05T13:01:51.785Z,21.05
2022-11-05T13:04:34.733Z,20.85
2022-11-05T13:07:06.879Z,21.48
2022-11-05T13:09:41.076Z,21.67
2022-11-05T13:12:12.287Z,22.92
2022-11-05T13:14:46.079Z,20.70
2022-11-05T13:17:18.709Z,24.42
2022-11-05T13:20:00.824Z,21.17
2022-11-05T13:22:36.995Z,21.30
2022-11-05T13:25:19.958Z,22.25
2022-11-05T13:27:54.787Z,22.92
2022-11-05T13:32:57.444Z,21.70
2022-11-05T13:35:31.779Z,23.35
2022-11-05T13:38:23.032Z,20.65
2022-11-05T13:41:06.341Z,21.70
2022-11-05T13:43:59.752Z,19.58
2022-11-05T13:46:46.288Z,23.15
2022-11-05T13:49:44.611Z,20.40
2022-11-05T13:52:33.834Z,28.05
2022-11-05T13:55:27.110Z,25.90
2022-11-05T13:58:36.632Z,23.38
2022-11-05T14:01:13.907Z,25.85
2022-11-05T14:03:47.937Z,19.08
2022-11-05T14:06:23.457Z,21.15
2022-11-05T14:08:53.490Z,22.20
2022-11-05T14:11:25.146Z,26.40
2022-11-05T14:13:57.905Z,26.35
2022-11-05T14:16:27.968Z,31.83
2022-11-05T14:19:29.981Z,43.38
2022-11-05T14:21:59.123Z,45.95
2022-11-05T14:24:43.430Z,36.42
2022-11-05T14:27:43.621Z,22.00
2022-11-05T14:30:43.570Z,19.73
2022-11-05T14:33:31.677Z,28.40
2022-11-05T14:36:34.306Z,23.52
2022-11-05T14:39:21.784Z,24.27
2022-11-05T14:42:01.862Z,28.65
2022-11-05T14:44:30.480Z,33.15
2022-11-05T14:47:02.113Z,33.75
2022-11-05T14:49:35.179Z,34.53
2022-11-05T14:52:09.178Z,39.67
2022-11-05T14:54:45.131Z,37.38
2022-11-05T14:57:16.475Z,50.00
2022-11-05T15:00:02.289Z,41.78
2022-11-05T15:02:37.066Z,37.25
2022-11-05T15:05:39.313Z,35.05
2022-11-05T15:08:30.959Z,25.10
2022-11-05T15:11:08.721Z,29.00
2022-11-05T15:13:46.283Z,24.13
2022-11-05T15:16:20.954Z,30.33
2022-11-05T15:18:49.335Z,30.00
2022-11-05T15:21:19.572Z,33.97
2022-11-05T15:23:51.925Z,32.63
2022-11-05T15:26:24.739Z,30.08
2022-11-05T15:28:55.824Z,30.42
2022-11-05T15:31:34.480Z,27.58
2022-11-05T15:34:19.571Z,30.98
2022-11-05T15:36:50.003Z,28.05
2022-11-05T15:39:29.768Z,37.25
2022-11-05T15:41:58.910Z,29.23
2022-11-05T15:44:31.161Z,32.65
2022-11-05T15:47:18.226Z,31.70
2022-11-05T15:49:47.818Z,33.67
2022-11-05T15:52:17.919Z,36.35
2022-11-05T15:54:46.470Z,40.05
2022-11-05T15:57:22.294Z,39.95
2022-11-05T15:59:52.012Z,47.80
2022-11-05T16:02:33.254Z,38.72
2022-11-05T16:05:04.393Z,93.15
2022-11-05T16:07:32.400Z,63.75
2022-11-05T16:10:02.320Z,48.75
2022-11-05T16:12:35.626Z,50.10
2022-11-05T16:15:19.781Z,37.47
2022-11-05T16:17:51.919Z,41.40
2022-11-05T16:20:32.230Z,49.13
2022-11-05T16:23:01.633Z,55.80
2022-11-05T16:25:33.738Z,58.45
2022-11-05T16:28:02.636Z,40.38
2022-11-05T16:30:32.114Z,40.78
2022-11-05T16:33:08.726Z,40.08
2022-11-05T16:35:41.792Z,44.17
2022-11-05T16:38:13.252Z,41.78
2022-11-05T16:40:41.552Z,41.45
2022-11-05T16:43:18.244Z,44.90
2022-11-05T16:45:47.891Z,45.58
2022-11-05T16:48:17.295Z,44.30
2022-11-05T16:50:46.213Z,43.83
2022-11-05T16:53:14.776Z,40.72
2022-11-05T16:55:44.924Z,43.15
2022-11-05T16:58:20.786Z,44.13
2022-11-05T17:00:52.261Z,45.40
2022-11-05T17:03:20.476Z,50.10
2022-11-05T17:05:48.833Z,50.50
2022-11-05T17:08:16.990Z,52.17
2022-11-05T17:10:45.163Z,51.28
2022-11-05T17:13:16.413Z,54.15
2022-11-05T17:15:45.723Z,71.07
2022-11-05T17:18:18.997Z,54.80
2022-11-05T17:20:48.877Z,57.17
2022-11-05T17:23:18.576Z,59.47
2022-11-05T17:25:48.654Z,49.35
2022-11-05T17:28:17.504Z,59.47
2022-11-05T17:30:52.010Z,60.55
2022-11-05T17:33:23.809Z,61.58
2022-11-05T17:35:52.527Z,51.33
2022-11-05T17:38:20.875Z,48.83
2022-11-05T17:40:49.010Z,46.88
2022-11-05T17:43:17.130Z,58.55
2022-11-05T17:45:46.535Z,67.80
2022-11-05T17:48:15.314Z,49.08
2022-11-05T17:50:46.937Z,45.80
2022-11-05T17:53:16.401Z,44.95
2022-11-05T17:55:45.807Z,38.33
2022-11-05T17:58:14.868Z,43.65
2022-11-05T18:00:43.603Z,37.90
2022-11-05T18:03:13.019Z,41.88
2022-11-05T18:05:41.403Z,39.97
2022-11-05T18:08:11.441Z,41.97
2022-11-05T18:10:40.441Z,41.35
2022-11-05T18:13:09.017Z,44.05
2022-11-05T18:15:41.033Z,44.65
2022-11-05T18:18:09.588Z,44.85
2022-11-05T18:20:38.216Z,45.90
2022-11-05T18:23:06.248Z,48.13
2022-11-05T18:25:35.653Z,48.83
2022-11-05T18:28:03.945Z,47.83
2022-11-05T18:30:31.953Z,48.15
2022-11-05T18:33:00.006Z,50.55
2022-11-05T18:35:28.076Z,48.72
2022-11-05T18:37:56.157Z,57.38
2022-11-05T18:40:24.121Z,56.03
2022-11-05T18:42:53.446Z,58.35
2022-11-05T18:45:25.499Z,61.00
2022-11-05T18:47:56.532Z,65.85
2022-11-05T18:50:24.650Z,67.60
2022-11-05T18:52:52.714Z,73.07
2022-11-05T18:55:21.008Z,117.75
2022-11-05T18:57:49.281Z,121.65
2022-11-05T19:00:19.089Z,104.13
2022-11-05T19:02:47.192Z,101.38
2022-11-05T19:05:28.498Z,98.95
2022-11-05T19:07:57.365Z,92.75
2022-11-05T19:10:25.725Z,103.18
2022-11-05T19:12:54.106Z,112.32
2022-11-05T19:15:23.535Z,91.97
2022-11-05T19:17:51.884Z,86.30
2022-11-05T19:20:20.023Z,88.63
2022-11-05T19:22:48.022Z,87.32
2022-11-05T19:25:16.024Z,96.57
2022-11-05T19:27:47.021Z,90.30
2022-11-05T19:30:15.244Z,93.78
2022-11-05T19:32:44.693Z,92.40
2022-11-05T19:35:12.808Z,90.82
2022-11-05T19:37:41.005Z,91.00
2022-11-05T19:40:11.296Z,80.20
2022-11-05T19:42:39.380Z,83.90
2022-11-05T19:45:30.864Z,88.60
2022-11-05T19:47:57.997Z,88.28
2022-11-05T19:50:26.349Z,89.00
2022-11-05T19:52:54.466Z,80.82
2022-11-05T19:55:22.547Z,83.53
2022-11-05T19:57:50.648Z,86.97
2022-11-05T20:00:19.150Z,82.72
2022-11-05T20:02:47.976Z,81.70
2022-11-05T20:05:18.386Z,88.63
2022-11-05T20:07:52.274Z,85.60
2022-11-05T20:10:20.979Z,81.30
2022-11-05T20:12:49.049Z,84.30
2022-11-05T20:15:19.126Z,86.72
2022-11-05T20:17:50.295Z,81.05
2022-11-05T20:20:20.247Z,83.35
2022-11-05T20:22:48.411Z,82.82
2022-11-05T20:25:16.678Z,87.93
2022-11-05T20:27:44.755Z,88.85
2022-11-05T20:30:13.110Z,97.35
2022-11-05T20:32:41.179Z,86.93
2022-11-05T20:35:10.192Z,90.68
2022-11-05T20:37:39.575Z,82.68
2022-11-05T20:40:08.652Z,82.57
2022-11-05T20:42:37.567Z,81.82
2022-11-05T20:45:06.257Z,79.03
2022-11-05T20:47:34.427Z,78.10
2022-11-05T20:50:04.165Z,84.88
2022-11-05T20:52:32.204Z,86.40
2022-11-05T20:55:02.336Z,83.25
2022-11-05T20:57:30.518Z,88.82
2022-11-05T20:59:58.560Z,84.28
2022-11-05T21:02:26.771Z,91.57
2022-11-05T21:04:54.937Z,73.25
2022-11-05T21:07:22.912Z,70.93
2022-11-05T21:09:50.918Z,63.03
2022-11-05T21:12:21.630Z,82.30
2022-11-05T21:14:51.058Z,65.40
2022-11-05T21:17:19.272Z,70.22
2022-11-05T21:19:47.371Z,69.40
2022-11-05T21:22:16.071Z,72.43
2022-11-05T21:24:44.437Z,67.75
2022-11-05T21:27:12.472Z,67.32
2022-11-05T21:29:41.950Z,66.88
2022-11-05T21:32:10.274Z,74.22
2022-11-05T21:34:38.416Z,65.88
2022-11-05T21:37:07.000Z,72.00
2022-11-05T21:39:35.098Z,71.47
2022-11-05T21:42:04.005Z,72.70
2022-11-05T21:44:32.031Z,70.60
2022-11-05T21:47:04.500Z,75.85
2022-11-05T21:49:35.063Z,76.63
2022-11-05T21:52:20.798Z,77.78
2022-11-05T21:55:06.410Z,95.70
2022-11-05T21:57:53.051Z,109.35
2022-11-05T22:00:21.187Z,95.45
2022-11-05T22:02:50.839Z,131.20
2022-11-05T22:05:19.150Z,107.88
2022-11-05T22:07:47.209Z,88.20
2022-11-05T22:10:16.576Z,108.28
2022-11-05T22:12:45.278Z,99.63
2022-11-05T22:15:13.573Z,75.85
2022-11-05T22:17:46.572Z,81.13
2022-11-05T22:20:16.787Z,67.43
2022-11-05T22:22:45.125Z,71.82
2022-11-05T22:25:14.428Z,75.30
2022-11-05T22:27:43.922Z,76.80
2022-11-05T22:30:13.815Z,77.25
2022-11-05T22:32:42.044Z,72.05
2022-11-05T22:35:10.822Z,75.88
2022-11-05T22:37:40.244Z,85.05
2022-11-05T22:40:09.781Z,80.75
2022-11-05T22:42:37.824Z,81.07
2022-11-05T22:45:06.817Z,79.72
2022-11-05T22:47:34.915Z,76.70
2022-11-05T22:50:02.978Z,74.47
2022-11-05T22:52:31.056Z,70.57
2022-11-05T22:55:02.670Z,70.72
2022-11-05T22:57:30.666Z,72.03
2022-11-05T22:59:58.660Z,73.25
2022-11-05T23:02:26.816Z,74.68
2022-11-05T23:04:54.921Z,77.38
2022-11-05T23:07:40.013Z,80.40
2022-11-05T23:10:28.060Z,78.10
2022-11-05T23:12:56.252Z,79.65
2022-11-05T23:15:41.865Z,79.22
2022-11-05T23:18:27.663Z,68.60
2022-11-05T23:21:13.220Z,68.30
2022-11-05T23:23:58.649Z,75.28
2022-11-05T23:29:13.417Z,72.32
2022-11-05T23:31:58.806Z,76.25
2022-11-05T23:37:20.599Z,68.55
2022-11-05T23:39:48.657Z,69.93
2022-11-05T23:42:50.658Z,72.72
2022-11-05T23:45:36.525Z,77.03
2022-11-05T23:48:17.900Z,80.15
2022-11-05T23:50:48.936Z,81.10
2022-11-05T23:53:17.072Z,78.35
2022-11-05T23:55:45.322Z,80.28
2022-11-05T23:58:17.718Z,79.50
